West Columbia, SC

7:23 PM EST on February 05, 2016 (GMT -0500)
Columbia Metro | | Change Station
CLOSE
Current Station
Airport
Location: Columbia,
Elevation: 223 ft
Nearby Weather Stations
Active Advisory: Flood Warning, Flood Advisory

Elev 223 ft 33.94 °N, 81.12 °W | Updated 27 minutes ago

Clear
Clear
47 °F
Feels Like 47 °F
N
0
Wind Variable Wind from North

Today
High -- | Low -- °F
--% Chance of Precip.
Yesterday
High -- | Low -- °F
Precip. -- in
Pressure 30.37 in
Visibility 10.0 miles
Clouds Clear
Dew Point 20 °F
Humidity 34%
Rainfall 0.00 in
Snow Depth Not available.
7:18 AM 5:58 PM
Waning Crescent, 8% visible
METAR KCAE 052356Z 00000KT 10SM CLR 08/M07 A3036 RMK AO2 SLP282 T00831067 10117 20083 53013
Pressure 30.37 in
Visibility 10.0 miles
Clouds Clear
Dew Point 20 °F
Humidity 34%
Rainfall 0.00 in
Snow Depth Not available.
7:18 AM 5:58 PM
Waning Crescent, 8% visible
METAR KCAE 052356Z 00000KT 10SM CLR 08/M07 A3036 RMK AO2 SLP282 T00831067 10117 20083 53013

10-Day Weather Forecast

Almanac

Astronomy

Feb. 05, 2016 Rise Set
Actual Time
Civil Twilight
Nautical Twilight
Astronomical Twilight
Moon
Length of Visible Light
Length of Day
Tomorrow will be .
, % of the Moon is Illuminated

Today's Extremes

State Highs State Lows

Community

WunderPhotos

Upload Photos

1,890,897 photos uploaded!

WunderBlog® & News

Nearby

Air Quality

  Air Quality AQ Index Pollutant
Not available.

Snow Depth

Station Depth Elevation

Earthquake Activity

City Distance Mag. Time & Date
Minimum magnitude displayed is 2.5.

Coastal Water Temperatures

Place Temperature

Stations

Nearby Weather Stations

Station Location Temp. Windchill Dew Point Humidity Wind Precip. Elev Updated Type
                   

Watches & Warnings

Flood Warning
Issued: 2:34 PM EST Feb. 5, 2016 – National Weather Service

The Flood Warning extended for
the Congaree River at Carolina Eastman.
* Until Sunday evening... or until the warning is cancelled.
* At 2 PM Friday the stage was 115.2 feet.
* Flood stage is 115.0 feet.
* Minor flooding is occurring and minor flooding is forecast.
* Forecast... the river will continue rising to near 117.8 feet by
tomorrow morning. The river will fall below flood stage by tomorrow
evening.


Lat... Lon 3396 8100 3387 8092 3379 8097 3394 8106




Flood Advisory
Issued: 2:35 PM EST Feb. 5, 2016 – National Weather Service

The Flood Advisory continues for
the Congaree River at Columbia.
* Until Saturday evening.
* At 2 PM Friday the stage was 9.6 feet.
* Flood stage is 19.0 feet.
* Forecast... the river will rise to crest at 11.5 feet tomorrow
morning.
* Advisory stage is 10.0 feet.
* At 13.0 feet... flooding occurs in flood prone areas near and
downstream from Columbia. Flooding also occurs over much of the
Cayce and West Columbia river walk.


Lat... Lon 3404 8106 3396 8100 3394 8106 3401 8111